sensor_id;sensor_type;location;lat;lon;timestamp;temperature;humidity
10536;DHT22;5316;49.538;8.352;2022-09-16T00:00:15;15.90;99.90
10536;DHT22;5316;49.538;8.352;2022-09-16T00:03:05;15.90;99.90
10536;DHT22;5316;49.538;8.352;2022-09-16T00:12:31;15.80;99.90
10536;DHT22;5316;49.538;8.352;2022-09-16T00:15:14;15.80;99.90
10536;DHT22;5316;49.538;8.352;2022-09-16T00:17:57;15.80;99.90
10536;DHT22;5316;49.538;8.352;2022-09-16T00:20:35;15.80;99.90
10536;DHT22;5316;49.538;8.352;2022-09-16T00:27:01;15.80;99.90
10536;DHT22;5316;49.538;8.352;2022-09-16T00:30:09;15.80;99.90
10536;DHT22;5316;49.538;8.352;2022-09-16T00:33:09;15.70;99.90
10536;DHT22;5316;49.538;8.352;2022-09-16T00:36:30;15.70;99.90
10536;DHT22;5316;49.538;8.352;2022-09-16T00:39:32;15.80;99.90
10536;DHT22;5316;49.538;8.352;2022-09-16T00:42:27;15.70;99.90
10536;DHT22;5316;49.538;8.352;2022-09-16T00:45:29;15.70;99.90
10536;DHT22;5316;49.538;8.352;2022-09-16T00:48:28;15.70;99.90
10536;DHT22;5316;49.538;8.352;2022-09-16T00:51:00;15.70;99.90
10536;DHT22;5316;49.538;8.352;2022-09-16T00:53:43;15.70;99.90
10536;DHT22;5316;49.538;8.352;2022-09-16T00:56:33;15.70;99.90
10536;DHT22;5316;49.538;8.352;2022-09-16T00:59:14;15.60;99.90
10536;DHT22;5316;49.538;8.352;2022-09-16T01:01:55;15.60;99.90
10536;DHT22;5316;49.538;8.352;2022-09-16T01:04:31;15.60;99.90
10536;DHT22;5316;49.538;8.352;2022-09-16T01:07:29;15.60;99.90
10536;DHT22;5316;49.538;8.352;2022-09-16T01:10:25;15.50;99.90
10536;DHT22;5316;49.538;8.352;2022-09-16T01:13:21;15.50;99.90
10536;DHT22;5316;49.538;8.352;2022-09-16T01:17:05;15.50;99.90
10536;DHT22;5316;49.538;8.352;2022-09-16T01:19:31;15.50;99.90
10536;DHT22;5316;49.538;8.352;2022-09-16T01:22:22;15.50;99.90
10536;DHT22;5316;49.538;8.352;2022-09-16T01:25:32;15.50;99.90
10536;DHT22;5316;49.538;8.352;2022-09-16T01:29:07;15.50;99.90
10536;DHT22;5316;49.538;8.352;2022-09-16T01:31:48;15.50;99.90
10536;DHT22;5316;49.538;8.352;2022-09-16T01:34:25;15.50;99.90
10536;DHT22;5316;49.538;8.352;2022-09-16T01:37:11;15.50;99.90
10536;DHT22;5316;49.538;8.352;2022-09-16T01:40:07;15.40;99.90
10536;DHT22;5316;49.538;8.352;2022-09-16T01:42:56;15.40;99.90
10536;DHT22;5316;49.538;8.352;2022-09-16T01:45:54;15.40;99.90
10536;DHT22;5316;49.538;8.352;2022-09-16T01:48:38;15.40;99.90
10536;DHT22;5316;49.538;8.352;2022-09-16T01:51:25;15.40;99.90
10536;DHT22;5316;49.538;8.352;2022-09-16T01:54:42;15.40;99.90
10536;DHT22;5316;49.538;8.352;2022-09-16T01:57:20;15.50;99.90
10536;DHT22;5316;49.538;8.352;2022-09-16T02:00:14;15.50;99.90
10536;DHT22;5316;49.538;8.352;2022-09-16T02:03:35;15.50;99.90
10536;DHT22;5316;49.538;8.352;2022-09-16T02:06:25;15.50;99.90
10536;DHT22;5316;49.538;8.352;2022-09-16T02:12:36;15.50;99.90
10536;DHT22;5316;49.538;8.352;2022-09-16T02:15:22;15.50;99.90
10536;DHT22;5316;49.538;8.352;2022-09-16T02:18:28;15.60;99.90
10536;DHT22;5316;49.538;8.352;2022-09-16T02:21:04;15.60;99.90
10536;DHT22;5316;49.538;8.352;2022-09-16T02:26:58;15.50;99.90
10536;DHT22;5316;49.538;8.352;2022-09-16T02:29:46;15.50;99.90
10536;DHT22;5316;49.538;8.352;2022-09-16T02:32:44;15.40;99.90
10536;DHT22;5316;49.538;8.352;2022-09-16T02:35:16;15.40;99.90
10536;DHT22;5316;49.538;8.352;2022-09-16T02:37:54;15.40;99.90
10536;DHT22;5316;49.538;8.352;2022-09-16T02:40:27;15.40;99.90
10536;DHT22;5316;49.538;8.352;2022-09-16T02:43:01;15.40;99.90
10536;DHT22;5316;49.538;8.352;2022-09-16T02:45:50;15.40;99.90
10536;DHT22;5316;49.538;8.352;2022-09-16T02:48:29;15.40;99.90
10536;DHT22;5316;49.538;8.352;2022-09-16T02:51:05;15.30;99.90
10536;DHT22;5316;49.538;8.352;2022-09-16T02:53:45;15.20;99.90
10536;DHT22;5316;49.538;8.352;2022-09-16T02:56:22;15.30;99.90
10536;DHT22;5316;49.538;8.352;2022-09-16T02:58:52;15.30;99.90
10536;DHT22;5316;49.538;8.352;2022-09-16T03:01:47;15.30;99.90
10536;DHT22;5316;49.538;8.352;2022-09-16T03:04:36;15.30;99.90
10536;DHT22;5316;49.538;8.352;2022-09-16T03:07:07;15.30;99.90
10536;DHT22;5316;49.538;8.352;2022-09-16T03:28:22;15.30;99.90
10536;DHT22;5316;49.538;8.352;2022-09-16T03:30:56;15.30;99.90
10536;DHT22;5316;49.538;8.352;2022-09-16T03:33:29;15.30;99.90
10536;DHT22;5316;49.538;8.352;2022-09-16T03:36:00;15.30;99.90
10536;DHT22;5316;49.538;8.352;2022-09-16T03:38:28;15.20;99.90
10536;DHT22;5316;49.538;8.352;2022-09-16T03:40:55;15.20;99.90
10536;DHT22;5316;49.538;8.352;2022-09-16T03:43:24;15.20;99.90
10536;DHT22;5316;49.538;8.352;2022-09-16T03:45:51;15.20;99.90
10536;DHT22;5316;49.538;8.352;2022-09-16T03:48:19;15.20;99.90
10536;DHT22;5316;49.538;8.352;2022-09-16T03:50:46;15.20;99.90
10536;DHT22;5316;49.538;8.352;2022-09-16T03:53:12;15.20;99.90
10536;DHT22;5316;49.538;8.352;2022-09-16T03:56:09;15.20;99.90
10536;DHT22;5316;49.538;8.352;2022-09-16T03:58:52;15.20;99.90
10536;DHT22;5316;49.538;8.352;2022-09-16T04:01:19;15.20;99.90
10536;DHT22;5316;49.538;8.352;2022-09-16T04:03:46;15.30;99.90
10536;DHT22;5316;49.538;8.352;2022-09-16T04:06:13;15.30;99.90
10536;DHT22;5316;49.538;8.352;2022-09-16T04:08:40;15.30;99.90
10536;DHT22;5316;49.538;8.352;2022-09-16T04:11:08;15.30;99.90
10536;DHT22;5316;49.538;8.352;2022-09-16T04:13:36;15.20;99.90
10536;DHT22;5316;49.538;8.352;2022-09-16T04:16:18;15.20;99.90
10536;DHT22;5316;49.538;8.352;2022-09-16T04:18:47;15.20;99.90
10536;DHT22;5316;49.538;8.352;2022-09-16T04:21:14;15.20;99.90
10536;DHT22;5316;49.538;8.352;2022-09-16T04:23:41;15.20;99.90
10536;DHT22;5316;49.538;8.352;2022-09-16T04:26:09;15.20;99.90
10536;DHT22;5316;49.538;8.352;2022-09-16T04:28:37;15.20;99.90
10536;DHT22;5316;49.538;8.352;2022-09-16T04:31:07;15.20;99.90
10536;DHT22;5316;49.538;8.352;2022-09-16T04:33:35;15.30;99.90
10536;DHT22;5316;49.538;8.352;2022-09-16T04:36:03;15.20;99.90
10536;DHT22;5316;49.538;8.352;2022-09-16T04:38:31;15.20;99.90
10536;DHT22;5316;49.538;8.352;2022-09-16T04:40:59;15.20;99.90
10536;DHT22;5316;49.538;8.352;2022-09-16T04:43:28;15.20;99.90
10536;DHT22;5316;49.538;8.352;2022-09-16T04:45:55;15.20;99.90
10536;DHT22;5316;49.538;8.352;2022-09-16T04:48:26;15.20;99.90
10536;DHT22;5316;49.538;8.352;2022-09-16T04:51:05;15.20;99.90
10536;DHT22;5316;49.538;8.352;2022-09-16T04:53:41;15.30;99.90
10536;DHT22;5316;49.538;8.352;2022-09-16T04:56:11;15.30;99.90
10536;DHT22;5316;49.538;8.352;2022-09-16T04:58:41;15.30;99.90
10536;DHT22;5316;49.538;8.352;2022-09-16T05:01:09;15.30;99.90
10536;DHT22;5316;49.538;8.352;2022-09-16T05:03:39;15.20;99.90
10536;DHT22;5316;49.538;8.352;2022-09-16T05:06:08;15.20;99.90
10536;DHT22;5316;49.538;8.352;2022-09-16T05:08:35;15.10;99.90
10536;DHT22;5316;49.538;8.352;2022-09-16T05:11:07;15.10;99.90
10536;DHT22;5316;49.538;8.352;2022-09-16T05:13:35;15.10;99.90
10536;DHT22;5316;49.538;8.352;2022-09-16T05:16:04;15.10;99.90
10536;DHT22;5316;49.538;8.352;2022-09-16T05:18:32;15.10;99.90
10536;DHT22;5316;49.538;8.352;2022-09-16T05:21:01;15.10;99.90
10536;DHT22;5316;49.538;8.352;2022-09-16T05:23:30;15.10;99.90
10536;DHT22;5316;49.538;8.352;2022-09-16T05:26:02;15.10;99.90
10536;DHT22;5316;49.538;8.352;2022-09-16T05:28:32;15.10;99.90
10536;DHT22;5316;49.538;8.352;2022-09-16T05:31:19;15.10;99.90
10536;DHT22;5316;49.538;8.352;2022-09-16T05:33:54;15.10;99.90
10536;DHT22;5316;49.538;8.352;2022-09-16T05:36:28;15.10;99.90
10536;DHT22;5316;49.538;8.352;2022-09-16T05:38:56;15.10;99.90
10536;DHT22;5316;49.538;8.352;2022-09-16T05:41:24;15.10;99.90
10536;DHT22;5316;49.538;8.352;2022-09-16T05:43:52;15.10;99.90
10536;DHT22;5316;49.538;8.352;2022-09-16T05:46:23;15.10;99.90
10536;DHT22;5316;49.538;8.352;2022-09-16T05:48:50;15.10;99.90
10536;DHT22;5316;49.538;8.352;2022-09-16T05:51:19;15.10;99.90
10536;DHT22;5316;49.538;8.352;2022-09-16T05:53:49;15.20;99.90
10536;DHT22;5316;49.538;8.352;2022-09-16T05:56:36;15.10;99.90
10536;DHT22;5316;49.538;8.352;2022-09-16T05:59:03;15.20;99.90
10536;DHT22;5316;49.538;8.352;2022-09-16T06:01:32;15.20;99.90
10536;DHT22;5316;49.538;8.352;2022-09-16T06:04:01;15.20;99.90
10536;DHT22;5316;49.538;8.352;2022-09-16T06:06:32;15.10;99.90
10536;DHT22;5316;49.538;8.352;2022-09-16T06:09:05;15.10;99.90
10536;DHT22;5316;49.538;8.352;2022-09-16T06:11:35;15.20;99.90
10536;DHT22;5316;49.538;8.352;2022-09-16T06:14:04;15.20;99.90
10536;DHT22;5316;49.538;8.352;2022-09-16T06:16:37;15.10;99.90
10536;DHT22;5316;49.538;8.352;2022-09-16T06:19:08;15.10;99.90
10536;DHT22;5316;49.538;8.352;2022-09-16T06:21:42;15.10;99.90
10536;DHT22;5316;49.538;8.352;2022-09-16T06:24:12;15.10;99.90
10536;DHT22;5316;49.538;8.352;2022-09-16T06:26:41;15.20;99.90
10536;DHT22;5316;49.538;8.352;2022-09-16T06:29:12;15.20;99.90
10536;DHT22;5316;49.538;8.352;2022-09-16T06:31:40;15.20;99.90
10536;DHT22;5316;49.538;8.352;2022-09-16T06:34:13;15.20;99.90
10536;DHT22;5316;49.538;8.352;2022-09-16T06:36:43;15.20;99.90
10536;DHT22;5316;49.538;8.352;2022-09-16T06:39:16;15.20;99.90
10536;DHT22;5316;49.538;8.352;2022-09-16T06:41:48;15.30;99.90
10536;DHT22;5316;49.538;8.352;2022-09-16T06:44:17;15.20;99.90
10536;DHT22;5316;49.538;8.352;2022-09-16T06:46:45;15.30;99.90
10536;DHT22;5316;49.538;8.352;2022-09-16T06:49:14;15.30;99.90
10536;DHT22;5316;49.538;8.352;2022-09-16T06:51:41;15.30;99.90
10536;DHT22;5316;49.538;8.352;2022-09-16T06:54:12;15.30;99.90
10536;DHT22;5316;49.538;8.352;2022-09-16T06:56:40;15.30;99.90
10536;DHT22;5316;49.538;8.352;2022-09-16T06:59:10;15.30;99.90
10536;DHT22;5316;49.538;8.352;2022-09-16T07:01:41;15.30;99.90
10536;DHT22;5316;49.538;8.352;2022-09-16T07:04:11;15.30;99.90
10536;DHT22;5316;49.538;8.352;2022-09-16T07:06:42;15.30;99.90
10536;DHT22;5316;49.538;8.352;2022-09-16T07:09:16;15.40;99.90
10536;DHT22;5316;49.538;8.352;2022-09-16T07:11:45;15.50;99.90
10536;DHT22;5316;49.538;8.352;2022-09-16T07:14:19;15.50;99.90
10536;DHT22;5316;49.538;8.352;2022-09-16T07:16:49;15.60;99.90
10536;DHT22;5316;49.538;8.352;2022-09-16T07:19:17;15.70;99.90
10536;DHT22;5316;49.538;8.352;2022-09-16T07:21:49;15.80;99.90
10536;DHT22;5316;49.538;8.352;2022-09-16T07:24:18;15.90;99.90
10536;DHT22;5316;49.538;8.352;2022-09-16T07:26:45;15.90;99.90
10536;DHT22;5316;49.538;8.352;2022-09-16T07:29:15;16.00;99.90
10536;DHT22;5316;49.538;8.352;2022-09-16T07:31:45;16.20;99.90
10536;DHT22;5316;49.538;8.352;2022-09-16T07:34:13;16.10;99.90
10536;DHT22;5316;49.538;8.352;2022-09-16T07:36:46;16.10;99.90
10536;DHT22;5316;49.538;8.352;2022-09-16T07:39:46;16.10;99.90
10536;DHT22;5316;49.538;8.352;2022-09-16T07:42:15;16.20;99.90
10536;DHT22;5316;49.538;8.352;2022-09-16T07:44:43;16.30;99.90
10536;DHT22;5316;49.538;8.352;2022-09-16T07:47:10;16.20;99.90
10536;DHT22;5316;49.538;8.352;2022-09-16T07:49:37;16.20;99.90
10536;DHT22;5316;49.538;8.352;2022-09-16T07:52:06;16.10;99.90
10536;DHT22;5316;49.538;8.352;2022-09-16T07:54:34;16.10;99.90
10536;DHT22;5316;49.538;8.352;2022-09-16T07:57:05;16.00;99.90
10536;DHT22;5316;49.538;8.352;2022-09-16T07:59:36;16.00;99.90
10536;DHT22;5316;49.538;8.352;2022-09-16T08:02:03;16.00;99.90
10536;DHT22;5316;49.538;8.352;2022-09-16T08:04:31;16.00;99.90
10536;DHT22;5316;49.538;8.352;2022-09-16T08:06:58;15.90;99.90
10536;DHT22;5316;49.538;8.352;2022-09-16T08:09:25;15.90;99.90
10536;DHT22;5316;49.538;8.352;2022-09-16T08:11:53;16.00;99.90
10536;DHT22;5316;49.538;8.352;2022-09-16T08:14:23;16.00;99.90
10536;DHT22;5316;49.538;8.352;2022-09-16T08:16:50;16.10;99.90
10536;DHT22;5316;49.538;8.352;2022-09-16T08:19:18;16.10;99.90
10536;DHT22;5316;49.538;8.352;2022-09-16T08:21:48;16.10;99.90
10536;DHT22;5316;49.538;8.352;2022-09-16T08:24:18;16.20;99.90
10536;DHT22;5316;49.538;8.352;2022-09-16T08:26:50;16.20;99.90
10536;DHT22;5316;49.538;8.352;2022-09-16T08:29:18;16.20;99.90
10536;DHT22;5316;49.538;8.352;2022-09-16T08:31:51;16.10;99.90
10536;DHT22;5316;49.538;8.352;2022-09-16T08:34:18;16.00;99.90
10536;DHT22;5316;49.538;8.352;2022-09-16T08:36:45;16.00;99.90
10536;DHT22;5316;49.538;8.352;2022-09-16T08:39:12;16.00;99.90
10536;DHT22;5316;49.538;8.352;2022-09-16T08:41:51;16.10;99.90
10536;DHT22;5316;49.538;8.352;2022-09-16T08:44:30;16.10;99.90
10536;DHT22;5316;49.538;8.352;2022-09-16T08:47:01;16.20;99.90
10536;DHT22;5316;49.538;8.352;2022-09-16T08:49:34;16.30;99.90
10536;DHT22;5316;49.538;8.352;2022-09-16T08:52:08;16.40;99.90
10536;DHT22;5316;49.538;8.352;2022-09-16T08:54:39;16.40;99.90
10536;DHT22;5316;49.538;8.352;2022-09-16T08:57:12;16.40;99.90
10536;DHT22;5316;49.538;8.352;2022-09-16T08:59:43;16.40;99.90
10536;DHT22;5316;49.538;8.352;2022-09-16T09:02:31;16.50;99.90
10536;DHT22;5316;49.538;8.352;2022-09-16T09:05:00;16.50;99.90
10536;DHT22;5316;49.538;8.352;2022-09-16T09:07:35;16.50;99.90
10536;DHT22;5316;49.538;8.352;2022-09-16T09:10:11;16.50;99.90
10536;DHT22;5316;49.538;8.352;2022-09-16T09:12:45;16.60;99.90
10536;DHT22;5316;49.538;8.352;2022-09-16T09:18:17;16.40;99.90
10536;DHT22;5316;49.538;8.352;2022-09-16T09:20:53;16.40;99.90
10536;DHT22;5316;49.538;8.352;2022-09-16T09:23:39;16.40;99.90
10536;DHT22;5316;49.538;8.352;2022-09-16T09:26:17;16.40;99.90
10536;DHT22;5316;49.538;8.352;2022-09-16T09:29:01;16.40;99.90
10536;DHT22;5316;49.538;8.352;2022-09-16T09:31:36;16.40;99.90
10536;DHT22;5316;49.538;8.352;2022-09-16T09:34:16;16.60;99.90
10536;DHT22;5316;49.538;8.352;2022-09-16T09:36:55;16.80;99.90
10536;DHT22;5316;49.538;8.352;2022-09-16T09:39:37;17.00;99.90
10536;DHT22;5316;49.538;8.352;2022-09-16T09:42:11;17.10;99.90
10536;DHT22;5316;49.538;8.352;2022-09-16T09:44:47;17.10;99.90
10536;DHT22;5316;49.538;8.352;2022-09-16T09:47:19;17.10;99.90
10536;DHT22;5316;49.538;8.352;2022-09-16T09:49:50;17.20;99.90
10536;DHT22;5316;49.538;8.352;2022-09-16T09:52:22;17.10;99.90
10536;DHT22;5316;49.538;8.352;2022-09-16T09:54:51;17.00;99.90
10536;DHT22;5316;49.538;8.352;2022-09-16T09:57:27;17.00;99.90
10536;DHT22;5316;49.538;8.352;2022-09-16T10:00:00;17.00;99.90
10536;DHT22;5316;49.538;8.352;2022-09-16T10:02:29;16.90;99.90
10536;DHT22;5316;49.538;8.352;2022-09-16T10:04:59;16.80;99.90
10536;DHT22;5316;49.538;8.352;2022-09-16T10:07:26;16.80;99.90
10536;DHT22;5316;49.538;8.352;2022-09-16T10:09:55;17.00;99.90
10536;DHT22;5316;49.538;8.352;2022-09-16T10:12:28;17.10;99.90
10536;DHT22;5316;49.538;8.352;2022-09-16T10:14:56;17.20;99.90
10536;DHT22;5316;49.538;8.352;2022-09-16T10:17:22;17.40;99.90
10536;DHT22;5316;49.538;8.352;2022-09-16T10:19:53;17.50;99.90
10536;DHT22;5316;49.538;8.352;2022-09-16T10:22:24;17.60;99.90
10536;DHT22;5316;49.538;8.352;2022-09-16T10:24:53;17.50;99.90
10536;DHT22;5316;49.538;8.352;2022-09-16T10:27:23;17.60;99.50
10536;DHT22;5316;49.538;8.352;2022-09-16T10:30:12;17.70;99.90
10536;DHT22;5316;49.538;8.352;2022-09-16T10:32:48;17.60;99.90
10536;DHT22;5316;49.538;8.352;2022-09-16T10:35:20;17.50;99.80
10536;DHT22;5316;49.538;8.352;2022-09-16T10:37:51;17.60;99.70
10536;DHT22;5316;49.538;8.352;2022-09-16T10:40:18;17.60;99.90
10536;DHT22;5316;49.538;8.352;2022-09-16T10:42:48;17.60;99.90
10536;DHT22;5316;49.538;8.352;2022-09-16T10:45:23;17.70;99.90
10536;DHT22;5316;49.538;8.352;2022-09-16T10:47:53;17.70;99.90
10536;DHT22;5316;49.538;8.352;2022-09-16T10:50:20;17.80;99.30
10536;DHT22;5316;49.538;8.352;2022-09-16T10:52:48;17.90;96.80
10536;DHT22;5316;49.538;8.352;2022-09-16T10:55:23;18.00;96.10
10536;DHT22;5316;49.538;8.352;2022-09-16T10:57:51;18.10;96.30
10536;DHT22;5316;49.538;8.352;2022-09-16T11:00:19;18.00;96.70
10536;DHT22;5316;49.538;8.352;2022-09-16T11:05:55;17.90;95.30
10536;DHT22;5316;49.538;8.352;2022-09-16T11:08:39;17.80;96.60
10536;DHT22;5316;49.538;8.352;2022-09-16T11:11:16;17.90;96.10
10536;DHT22;5316;49.538;8.352;2022-09-16T11:13:52;17.80;95.70
10536;DHT22;5316;49.538;8.352;2022-09-16T11:16:44;17.80;97.20
10536;DHT22;5316;49.538;8.352;2022-09-16T11:19:17;17.80;98.00
10536;DHT22;5316;49.538;8.352;2022-09-16T11:21:55;17.80;96.50
10536;DHT22;5316;49.538;8.352;2022-09-16T11:24:38;17.70;98.20
10536;DHT22;5316;49.538;8.352;2022-09-16T11:27:17;17.90;96.90
10536;DHT22;5316;49.538;8.352;2022-09-16T11:30:10;18.00;98.10
10536;DHT22;5316;49.538;8.352;2022-09-16T11:33:00;18.10;98.80
10536;DHT22;5316;49.538;8.352;2022-09-16T11:36:01;18.20;98.80
10536;DHT22;5316;49.538;8.352;2022-09-16T11:38:37;18.20;99.00
10536;DHT22;5316;49.538;8.352;2022-09-16T11:41:12;18.20;96.30
10536;DHT22;5316;49.538;8.352;2022-09-16T11:44:00;18.30;98.80
10536;DHT22;5316;49.538;8.352;2022-09-16T11:46:34;18.40;98.90
10536;DHT22;5316;49.538;8.352;2022-09-16T11:49:17;18.40;97.10
10536;DHT22;5316;49.538;8.352;2022-09-16T11:51:59;18.50;97.00
10536;DHT22;5316;49.538;8.352;2022-09-16T11:54:45;18.50;96.40
10536;DHT22;5316;49.538;8.352;2022-09-16T11:57:19;18.50;96.80
10536;DHT22;5316;49.538;8.352;2022-09-16T11:59:51;18.70;97.70
10536;DHT22;5316;49.538;8.352;2022-09-16T12:02:25;18.70;97.40
10536;DHT22;5316;49.538;8.352;2022-09-16T12:04:59;18.80;97.90
10536;DHT22;5316;49.538;8.352;2022-09-16T12:07:31;19.00;96.00
10536;DHT22;5316;49.538;8.352;2022-09-16T12:10:05;19.00;95.50
10536;DHT22;5316;49.538;8.352;2022-09-16T12:12:41;19.00;96.80
10536;DHT22;5316;49.538;8.352;2022-09-16T12:15:16;19.00;97.70
10536;DHT22;5316;49.538;8.352;2022-09-16T12:17:51;19.00;97.30
10536;DHT22;5316;49.538;8.352;2022-09-16T12:20:21;19.10;94.90
10536;DHT22;5316;49.538;8.352;2022-09-16T12:22:53;19.00;95.90
10536;DHT22;5316;49.538;8.352;2022-09-16T12:25:25;19.00;97.00
10536;DHT22;5316;49.538;8.352;2022-09-16T12:27:59;18.80;97.70
10536;DHT22;5316;49.538;8.352;2022-09-16T12:30:32;18.80;97.30
10536;DHT22;5316;49.538;8.352;2022-09-16T12:33:04;18.80;97.30
10536;DHT22;5316;49.538;8.352;2022-09-16T12:35:34;18.70;98.70
10536;DHT22;5316;49.538;8.352;2022-09-16T12:38:02;18.80;98.00
10536;DHT22;5316;49.538;8.352;2022-09-16T12:40:35;18.80;97.60
10536;DHT22;5316;49.538;8.352;2022-09-16T12:43:37;18.90;97.10
10536;DHT22;5316;49.538;8.352;2022-09-16T12:52:17;19.30;96.20
10536;DHT22;5316;49.538;8.352;2022-09-16T12:55:12;19.00;96.20
10536;DHT22;5316;49.538;8.352;2022-09-16T12:58:00;18.90;97.90
10536;DHT22;5316;49.538;8.352;2022-09-16T13:00:33;18.70;97.60
10536;DHT22;5316;49.538;8.352;2022-09-16T13:03:09;18.70;98.40
10536;DHT22;5316;49.538;8.352;2022-09-16T13:05:40;18.80;99.30
10536;DHT22;5316;49.538;8.352;2022-09-16T13:08:19;18.80;99.40
10536;DHT22;5316;49.538;8.352;2022-09-16T13:10:54;18.80;98.80
10536;DHT22;5316;49.538;8.352;2022-09-16T13:13:29;18.60;98.80
10536;DHT22;5316;49.538;8.352;2022-09-16T13:15:58;18.50;99.60
10536;DHT22;5316;49.538;8.352;2022-09-16T13:18:40;18.20;99.90
10536;DHT22;5316;49.538;8.352;2022-09-16T13:21:20;17.90;99.90
10536;DHT22;5316;49.538;8.352;2022-09-16T13:23:57;17.10;99.90
10536;DHT22;5316;49.538;8.352;2022-09-16T13:26:37;16.30;99.90
10536;DHT22;5316;49.538;8.352;2022-09-16T13:29:23;15.80;99.90
10536;DHT22;5316;49.538;8.352;2022-09-16T13:31:50;15.40;99.90
10536;DHT22;5316;49.538;8.352;2022-09-16T13:34:19;15.10;99.90
10536;DHT22;5316;49.538;8.352;2022-09-16T13:36:46;14.90;99.90
10536;DHT22;5316;49.538;8.352;2022-09-16T13:39:14;14.90;99.90
10536;DHT22;5316;49.538;8.352;2022-09-16T13:41:52;14.90;99.90
10536;DHT22;5316;49.538;8.352;2022-09-16T13:44:28;15.00;99.90
10536;DHT22;5316;49.538;8.352;2022-09-16T13:47:12;15.10;99.90
10536;DHT22;5316;49.538;8.352;2022-09-16T13:49:45;15.30;99.90
10536;DHT22;5316;49.538;8.352;2022-09-16T13:52:18;15.50;99.90
10536;DHT22;5316;49.538;8.352;2022-09-16T13:54:47;15.80;99.90
10536;DHT22;5316;49.538;8.352;2022-09-16T13:57:24;16.20;99.90
10536;DHT22;5316;49.538;8.352;2022-09-16T14:00:04;16.50;99.90
10536;DHT22;5316;49.538;8.352;2022-09-16T14:02:54;16.60;99.90
10536;DHT22;5316;49.538;8.352;2022-09-16T14:05:33;16.70;99.90
10536;DHT22;5316;49.538;8.352;2022-09-16T14:08:09;16.80;99.90
10536;DHT22;5316;49.538;8.352;2022-09-16T14:10:50;16.80;99.90
10536;DHT22;5316;49.538;8.352;2022-09-16T14:13:21;16.60;99.90
10536;DHT22;5316;49.538;8.352;2022-09-16T14:15:50;16.40;99.90
10536;DHT22;5316;49.538;8.352;2022-09-16T14:18:20;16.40;99.90
10536;DHT22;5316;49.538;8.352;2022-09-16T14:20:59;16.30;99.90
10536;DHT22;5316;49.538;8.352;2022-09-16T14:23:29;16.30;99.90
10536;DHT22;5316;49.538;8.352;2022-09-16T14:25:56;16.20;99.90
10536;DHT22;5316;49.538;8.352;2022-09-16T14:28:25;16.00;99.90
10536;DHT22;5316;49.538;8.352;2022-09-16T14:30:54;15.80;99.90
10536;DHT22;5316;49.538;8.352;2022-09-16T14:33:24;15.70;99.90
10536;DHT22;5316;49.538;8.352;2022-09-16T14:35:53;15.70;99.90
10536;DHT22;5316;49.538;8.352;2022-09-16T14:38:30;15.50;99.90
10536;DHT22;5316;49.538;8.352;2022-09-16T14:40:58;15.50;99.90
10536;DHT22;5316;49.538;8.352;2022-09-16T14:43:25;15.50;99.90
10536;DHT22;5316;49.538;8.352;2022-09-16T14:45:54;15.50;99.90
10536;DHT22;5316;49.538;8.352;2022-09-16T14:48:27;15.50;99.90
10536;DHT22;5316;49.538;8.352;2022-09-16T14:50:55;15.60;99.90
10536;DHT22;5316;49.538;8.352;2022-09-16T14:53:27;15.70;99.90
10536;DHT22;5316;49.538;8.352;2022-09-16T14:55:54;15.80;99.90
10536;DHT22;5316;49.538;8.352;2022-09-16T14:58:23;15.90;99.90
10536;DHT22;5316;49.538;8.352;2022-09-16T15:00:53;16.00;99.90
10536;DHT22;5316;49.538;8.352;2022-09-16T15:03:26;16.10;99.90
10536;DHT22;5316;49.538;8.352;2022-09-16T15:05:58;16.10;99.90
10536;DHT22;5316;49.538;8.352;2022-09-16T15:08:30;16.10;99.90
10536;DHT22;5316;49.538;8.352;2022-09-16T15:11:01;16.20;99.90
10536;DHT22;5316;49.538;8.352;2022-09-16T15:13:34;16.40;99.90
10536;DHT22;5316;49.538;8.352;2022-09-16T15:16:08;16.60;99.90
10536;DHT22;5316;49.538;8.352;2022-09-16T15:18:38;16.60;99.90
10536;DHT22;5316;49.538;8.352;2022-09-16T15:21:08;16.60;99.90
10536;DHT22;5316;49.538;8.352;2022-09-16T15:23:38;16.70;99.90
10536;DHT22;5316;49.538;8.352;2022-09-16T15:26:13;16.60;99.90
10536;DHT22;5316;49.538;8.352;2022-09-16T15:28:54;16.50;99.90
10536;DHT22;5316;49.538;8.352;2022-09-16T15:31:27;16.10;99.90
10536;DHT22;5316;49.538;8.352;2022-09-16T15:33:54;16.00;99.90
10536;DHT22;5316;49.538;8.352;2022-09-16T15:36:35;15.80;99.90
10536;DHT22;5316;49.538;8.352;2022-09-16T15:39:04;15.80;99.90
10536;DHT22;5316;49.538;8.352;2022-09-16T15:41:31;15.80;99.90
10536;DHT22;5316;49.538;8.352;2022-09-16T15:43:59;15.80;99.90
10536;DHT22;5316;49.538;8.352;2022-09-16T15:46:27;15.80;99.90
10536;DHT22;5316;49.538;8.352;2022-09-16T15:48:56;15.70;99.90
10536;DHT22;5316;49.538;8.352;2022-09-16T15:51:29;15.80;99.90
10536;DHT22;5316;49.538;8.352;2022-09-16T15:54:05;15.70;99.90
10536;DHT22;5316;49.538;8.352;2022-09-16T15:56:38;15.80;99.90
10536;DHT22;5316;49.538;8.352;2022-09-16T15:59:20;15.80;99.90
10536;DHT22;5316;49.538;8.352;2022-09-16T16:01:50;15.90;99.90
10536;DHT22;5316;49.538;8.352;2022-09-16T16:04:22;15.90;99.90
10536;DHT22;5316;49.538;8.352;2022-09-16T16:06:53;15.90;99.90
10536;DHT22;5316;49.538;8.352;2022-09-16T16:09:38;15.90;99.90
10536;DHT22;5316;49.538;8.352;2022-09-16T16:12:09;15.80;99.90
10536;DHT22;5316;49.538;8.352;2022-09-16T16:14:38;15.90;99.90
10536;DHT22;5316;49.538;8.352;2022-09-16T16:17:07;15.90;99.90
10536;DHT22;5316;49.538;8.352;2022-09-16T16:19:35;16.00;99.90
10536;DHT22;5316;49.538;8.352;2022-09-16T16:22:04;16.10;99.90
10536;DHT22;5316;49.538;8.352;2022-09-16T16:24:31;16.20;99.90
10536;DHT22;5316;49.538;8.352;2022-09-16T16:26:59;16.30;99.90
10536;DHT22;5316;49.538;8.352;2022-09-16T16:29:26;16.20;99.90
10536;DHT22;5316;49.538;8.352;2022-09-16T16:32:00;16.10;99.90
10536;DHT22;5316;49.538;8.352;2022-09-16T16:34:30;15.80;99.90
10536;DHT22;5316;49.538;8.352;2022-09-16T16:36:57;15.60;99.90
10536;DHT22;5316;49.538;8.352;2022-09-16T16:39:24;15.40;99.90
10536;DHT22;5316;49.538;8.352;2022-09-16T16:41:52;15.20;99.90
10536;DHT22;5316;49.538;8.352;2022-09-16T16:44:22;15.10;99.90
10536;DHT22;5316;49.538;8.352;2022-09-16T16:46:49;15.00;99.90
10536;DHT22;5316;49.538;8.352;2022-09-16T16:49:17;15.00;99.90
10536;DHT22;5316;49.538;8.352;2022-09-16T16:51:44;15.10;99.90
10536;DHT22;5316;49.538;8.352;2022-09-16T16:54:13;15.20;99.90
10536;DHT22;5316;49.538;8.352;2022-09-16T16:56:40;15.10;99.90
10536;DHT22;5316;49.538;8.352;2022-09-16T16:59:07;15.10;99.90
10536;DHT22;5316;49.538;8.352;2022-09-16T17:01:35;15.10;99.90
10536;DHT22;5316;49.538;8.352;2022-09-16T17:04:04;15.10;99.90
10536;DHT22;5316;49.538;8.352;2022-09-16T17:06:31;15.10;99.90
10536;DHT22;5316;49.538;8.352;2022-09-16T17:08:59;15.00;99.90
10536;DHT22;5316;49.538;8.352;2022-09-16T17:11:27;15.00;99.90
10536;DHT22;5316;49.538;8.352;2022-09-16T17:13:57;15.00;99.90
10536;DHT22;5316;49.538;8.352;2022-09-16T17:16:26;14.90;99.90
10536;DHT22;5316;49.538;8.352;2022-09-16T17:18:55;14.80;99.90
10536;DHT22;5316;49.538;8.352;2022-09-16T17:21:25;14.70;99.90